Página principal
METAR-TAF:

METAR-TAF

Aeroportos :

Nouadhibou, Mauritânia

latitude: 20-56N, longitude: 017-02W, altura: 5 m

Observação actual do tempo

O boletim foi feito há 1 hora e 30 minutos, às 05:00 UTC
Vento 17 kt de nor-nordeste
Temperatura 22°C
Humidade 78%
Pressão 1009 hPa
Visibilidade 10 km ou mais
sem nuvens abaixo de 1500 metros e sem cumulonimbus

METAR: GQPP 120500Z 02017KT CAVOK 22/18 Q1009 NOSIG

Hora: 06:30 (06:30 UTC)

Previsão

O boletim foi feito há 1 hora e 30 minutos, às 05:00 UTC
Previsão válida de 12 às 06 UTC a 13 às 06 UTC
Vento 16 kt de norte
Visibilidade: 8000 m
Probabilidade 40% :
Temporariamente
de 12 às 15 UTC a 12 às 19 UTC
Visibilidade: 3500 m
Areia baixa levantada pelo vento

TAF: GQPP 120500Z 1206/1306 01016KT 8000 NSC PROB40 TEMPO 1215/1219 3500 DRSA

Observações e previsões do tempo de mais de 4000 aeroportos (mensagens METAR e TAF).

As estações disponíveis são os pontos amarelos e vermelhos sobre o mapa.

Mova o rato sobre o mapa para ver o nome da estação.

Depois clique no ponto para visualizar as observações e previsões meteorológicas.

Para alterar o mapa : clique nos botões verdes com uma cruz preta para aumentar o zoom; no botão verde com uma pitada de zoom; ou nas setas verdes para mapas adjacentes.


METAR-TAF: